createdAt,value
2023-03-31T00:00:47.080Z,100.00
2023-03-31T00:03:22.624Z,100.00
2023-03-31T00:05:55.150Z,100.00
2023-03-31T00:08:22.754Z,100.00
2023-03-31T00:10:50.076Z,100.00
2023-03-31T00:13:17.558Z,100.00
2023-03-31T00:15:46.080Z,100.00
2023-03-31T00:18:13.249Z,100.00
2023-03-31T00:20:43.017Z,100.00
2023-03-31T00:23:11.297Z,100.00
2023-03-31T00:25:41.876Z,100.00
2023-03-31T00:28:09.092Z,100.00
2023-03-31T00:30:36.736Z,100.00
2023-03-31T00:33:04.746Z,100.00
2023-03-31T00:35:32.159Z,100.00
2023-03-31T00:37:59.834Z,100.00
2023-03-31T00:40:26.996Z,100.00
2023-03-31T00:42:54.192Z,100.00
2023-03-31T00:45:25.120Z,100.00
2023-03-31T00:48:10.432Z,100.00
2023-03-31T00:50:47.011Z,100.00
2023-03-31T00:53:16.496Z,100.00
2023-03-31T00:55:47.734Z,100.00
2023-03-31T00:58:15.283Z,100.00
2023-03-31T01:00:42.890Z,100.00
2023-03-31T01:03:11.239Z,100.00
2023-03-31T01:05:50.192Z,100.00
2023-03-31T01:08:19.475Z,100.00
2023-03-31T01:10:51.661Z,100.00
2023-03-31T01:13:20.015Z,100.00
2023-03-31T01:15:47.307Z,100.00
2023-03-31T01:18:16.414Z,100.00
2023-03-31T01:21:18.640Z,100.00
2023-03-31T01:24:04.758Z,100.00
2023-03-31T01:26:59.090Z,100.00
2023-03-31T01:30:04.078Z,100.00
2023-03-31T01:32:59.437Z,100.00
2023-03-31T01:35:29.323Z,100.00
2023-03-31T01:38:05.843Z,100.00
2023-03-31T01:40:36.127Z,100.00
2023-03-31T01:43:20.966Z,100.00
2023-03-31T01:46:06.988Z,100.00
2023-03-31T01:49:19.138Z,100.00
2023-03-31T01:52:08.342Z,100.00
2023-03-31T01:54:56.020Z,100.00
2023-03-31T01:57:31.062Z,100.00
2023-03-31T02:00:03.378Z,100.00
2023-03-31T02:03:02.485Z,100.00
2023-03-31T02:05:37.984Z,100.00
2023-03-31T02:08:10.746Z,100.00
2023-03-31T02:10:39.493Z,100.00
2023-03-31T02:13:07.153Z,100.00
2023-03-31T02:15:38.344Z,100.00
2023-03-31T02:18:11.449Z,100.00
2023-03-31T02:20:42.345Z,100.00
2023-03-31T02:23:12.843Z,100.00
2023-03-31T02:25:49.071Z,100.00
2023-03-31T02:28:22.747Z,100.00
2023-03-31T02:31:11.800Z,100.00
2023-03-31T02:33:41.127Z,100.00
2023-03-31T02:36:09.218Z,100.00
2023-03-31T02:38:40.220Z,100.00
2023-03-31T02:41:08.108Z,100.00
2023-03-31T02:43:35.269Z,100.00
2023-03-31T02:46:02.427Z,100.00
2023-03-31T02:48:43.289Z,100.00
2023-03-31T02:51:37.960Z,100.00
2023-03-31T02:54:20.652Z,100.00
2023-03-31T02:57:08.118Z,100.00
2023-03-31T03:00:02.136Z,100.00
2023-03-31T03:03:01.610Z,100.00
2023-03-31T03:05:49.948Z,100.00
2023-03-31T03:08:34.907Z,100.00
2023-03-31T03:11:02.349Z,100.00
2023-03-31T03:13:29.542Z,100.00
2023-03-31T03:16:04.106Z,100.00
2023-03-31T03:18:32.913Z,100.00
2023-03-31T03:21:00.148Z,100.00
2023-03-31T03:23:27.420Z,100.00
2023-03-31T03:25:55.773Z,100.00
2023-03-31T03:28:23.174Z,100.00
2023-03-31T03:30:50.470Z,100.00
2023-03-31T03:33:18.047Z,100.00
2023-03-31T03:35:45.288Z,100.00
2023-03-31T03:38:12.380Z,100.00
2023-03-31T03:40:39.833Z,100.00
2023-03-31T03:43:06.984Z,100.00
2023-03-31T03:45:34.191Z,100.00
2023-03-31T03:48:01.723Z,100.00
2023-03-31T03:50:28.957Z,100.00
2023-03-31T03:52:56.441Z,100.00
2023-03-31T03:55:23.904Z,100.00
2023-03-31T03:57:51.395Z,100.00
2023-03-31T04:00:18.926Z,100.00
2023-03-31T04:02:47.148Z,100.00
2023-03-31T04:05:14.629Z,100.00
2023-03-31T04:07:41.834Z,100.00
2023-03-31T04:10:09.611Z,100.00
2023-03-31T04:12:36.876Z,100.00
2023-03-31T04:15:04.953Z,100.00
2023-03-31T04:17:32.983Z,100.00
2023-03-31T04:20:04.646Z,100.00
2023-03-31T04:22:40.910Z,100.00
2023-03-31T04:25:16.718Z,100.00
2023-03-31T04:27:46.950Z,100.00
2023-03-31T04:30:22.779Z,100.00
2023-03-31T04:32:55.505Z,100.00
2023-03-31T04:35:24.628Z,100.00
2023-03-31T04:37:58.802Z,100.00
2023-03-31T04:40:26.670Z,100.00
2023-03-31T04:42:53.940Z,100.00
2023-03-31T04:45:21.145Z,100.00
2023-03-31T04:47:48.682Z,100.00
2023-03-31T04:50:17.125Z,100.00
2023-03-31T04:52:44.916Z,100.00
2023-03-31T04:55:12.423Z,100.00
2023-03-31T04:57:39.631Z,100.00
2023-03-31T05:00:07.986Z,100.00
2023-03-31T05:02:35.671Z,100.00
2023-03-31T05:05:03.835Z,100.00
2023-03-31T05:07:31.582Z,100.00
2023-03-31T05:09:59.080Z,100.00
2023-03-31T05:12:26.308Z,100.00
2023-03-31T05:14:53.540Z,100.00
2023-03-31T05:17:22.301Z,100.00
2023-03-31T05:19:49.608Z,100.00
2023-03-31T05:22:20.674Z,100.00
2023-03-31T05:24:48.324Z,100.00
2023-03-31T05:27:16.010Z,100.00
2023-03-31T05:29:43.945Z,100.00
2023-03-31T05:32:11.779Z,100.00
2023-03-31T05:34:39.085Z,100.00
2023-03-31T05:37:06.309Z,100.00
2023-03-31T05:39:33.789Z,100.00
2023-03-31T05:42:01.043Z,100.00
2023-03-31T05:44:28.383Z,100.00
2023-03-31T05:46:55.932Z,100.00
2023-03-31T05:49:23.172Z,98.46
2023-03-31T05:51:51.791Z,99.47
2023-03-31T05:54:19.394Z,100.00
2023-03-31T05:56:46.638Z,100.00
2023-03-31T05:59:15.081Z,100.00
2023-03-31T06:01:42.801Z,100.00
2023-03-31T06:04:10.391Z,100.00
2023-03-31T06:06:38.153Z,99.15
2023-03-31T06:09:06.066Z,98.04
2023-03-31T06:11:33.556Z,98.36
2023-03-31T06:14:00.688Z,100.00
2023-03-31T06:16:29.073Z,98.79
2023-03-31T06:18:56.772Z,97.41
2023-03-31T06:21:23.959Z,96.37
2023-03-31T06:23:55.122Z,96.03
2023-03-31T06:26:22.856Z,96.10
2023-03-31T06:28:49.988Z,93.89
2023-03-31T06:31:19.378Z,92.36
2023-03-31T06:33:47.591Z,91.64
2023-03-31T06:36:17.078Z,90.41
2023-03-31T06:38:44.639Z,90.57
2023-03-31T06:41:13.904Z,88.46
2023-03-31T06:43:41.227Z,87.46
2023-03-31T06:46:09.201Z,91.01
2023-03-31T06:48:37.194Z,90.40
2023-03-31T06:51:06.269Z,91.75
2023-03-31T06:53:34.026Z,90.47
2023-03-31T06:56:02.000Z,90.23
2023-03-31T06:58:31.439Z,92.70
2023-03-31T07:00:59.436Z,91.84
2023-03-31T07:03:27.089Z,90.02
2023-03-31T07:05:55.358Z,89.88
2023-03-31T07:08:23.286Z,88.32
2023-03-31T07:10:57.913Z,88.11
2023-03-31T07:13:25.770Z,87.60
2023-03-31T07:15:53.491Z,90.23
2023-03-31T07:18:21.020Z,85.41
2023-03-31T07:20:49.751Z,86.79
2023-03-31T07:23:17.167Z,85.68
2023-03-31T07:25:45.483Z,86.44
2023-03-31T07:28:12.687Z,85.27
2023-03-31T07:30:41.110Z,85.34
2023-03-31T07:33:08.713Z,83.83
2023-03-31T07:35:40.441Z,84.37
2023-03-31T07:38:09.733Z,85.11
2023-03-31T07:40:37.568Z,83.87
2023-03-31T07:43:05.369Z,81.99
2023-03-31T07:45:33.265Z,83.51
2023-03-31T07:48:00.482Z,84.36
2023-03-31T07:50:27.640Z,84.40
2023-03-31T07:52:55.537Z,83.15
2023-03-31T07:55:23.920Z,83.33
2023-03-31T07:57:51.500Z,84.33
2023-03-31T08:00:19.857Z,85.72
2023-03-31T08:02:47.312Z,86.67
2023-03-31T08:05:16.999Z,85.22
2023-03-31T08:07:46.616Z,84.76
2023-03-31T08:10:17.887Z,85.13
2023-03-31T08:12:45.005Z,85.97
2023-03-31T08:15:12.302Z,84.97
2023-03-31T08:17:40.371Z,84.93
2023-03-31T08:20:08.568Z,87.41
2023-03-31T08:22:37.834Z,85.27
2023-03-31T08:25:06.462Z,85.29
2023-03-31T08:27:38.175Z,84.68
2023-03-31T08:30:07.922Z,85.76
2023-03-31T08:32:35.634Z,84.24
2023-03-31T08:35:02.812Z,84.13
2023-03-31T08:37:30.301Z,84.20
2023-03-31T08:39:57.558Z,84.08
2023-03-31T08:42:43.957Z,84.59
2023-03-31T08:45:24.805Z,81.95
2023-03-31T08:48:14.911Z,82.14
2023-03-31T08:50:50.993Z,82.04
2023-03-31T08:53:33.504Z,81.68
2023-03-31T08:56:01.632Z,84.91
2023-03-31T08:58:32.426Z,81.89
2023-03-31T09:00:59.582Z,80.91
2023-03-31T09:04:03.699Z,80.03
2023-03-31T09:07:02.408Z,81.93
2023-03-31T09:09:57.123Z,82.20
2023-03-31T09:12:42.305Z,79.79
2023-03-31T09:15:56.955Z,79.78
2023-03-31T09:18:47.095Z,78.83
2023-03-31T09:21:31.971Z,79.92
2023-03-31T09:24:16.297Z,78.32
2023-03-31T09:26:53.070Z,77.79
2023-03-31T09:29:43.417Z,76.94
2023-03-31T09:32:18.191Z,77.29
2023-03-31T09:34:46.766Z,76.50
2023-03-31T09:37:14.332Z,76.91
2023-03-31T09:39:41.477Z,76.81
2023-03-31T09:42:12.843Z,76.67
2023-03-31T09:44:42.264Z,73.88
2023-03-31T09:47:17.290Z,74.59
2023-03-31T09:49:53.894Z,75.46
2023-03-31T09:52:32.956Z,74.00
2023-03-31T09:55:40.094Z,75.86
2023-03-31T09:58:11.818Z,71.40
2023-03-31T10:00:42.423Z,73.22
2023-03-31T10:03:13.221Z,73.03
2023-03-31T10:05:51.196Z,72.62
2023-03-31T10:08:31.227Z,75.42
2023-03-31T10:11:11.565Z,75.75
2023-03-31T10:13:42.028Z,74.65
2023-03-31T10:16:13.882Z,71.37
2023-03-31T10:18:43.540Z,73.92
2023-03-31T10:21:26.111Z,72.76
2023-03-31T10:23:55.066Z,74.37
2023-03-31T10:26:26.176Z,72.52
2023-03-31T10:28:55.345Z,75.62
2023-03-31T10:31:26.518Z,73.72
2023-03-31T10:33:54.171Z,69.47
2023-03-31T10:36:24.394Z,71.95
2023-03-31T10:38:52.917Z,72.48
2023-03-31T10:41:23.234Z,73.52
2023-03-31T10:43:52.947Z,74.64
2023-03-31T10:46:20.872Z,74.08
2023-03-31T10:48:48.018Z,73.09
2023-03-31T10:51:19.265Z,73.16
2023-03-31T10:53:51.888Z,71.23
2023-03-31T10:56:50.178Z,72.18
2023-03-31T10:59:27.725Z,70.81
2023-03-31T11:02:13.644Z,72.11
2023-03-31T11:04:49.931Z,71.48
2023-03-31T11:07:23.185Z,69.73
2023-03-31T11:10:28.339Z,68.10
2023-03-31T11:13:00.808Z,68.44
2023-03-31T11:15:56.279Z,66.81
2023-03-31T11:18:41.525Z,67.86
2023-03-31T11:21:36.717Z,66.04
2023-03-31T11:24:22.505Z,66.26
2023-03-31T11:27:16.636Z,67.85
2023-03-31T11:29:45.182Z,66.45
2023-03-31T11:32:21.474Z,66.61
2023-03-31T11:35:24.165Z,68.20
2023-03-31T11:37:52.958Z,68.43
2023-03-31T11:40:23.126Z,67.38
2023-03-31T11:42:57.476Z,67.34
2023-03-31T11:45:56.748Z,68.57
2023-03-31T11:48:33.876Z,66.73
2023-03-31T11:51:03.590Z,67.08
2023-03-31T11:53:33.756Z,68.56
2023-03-31T11:56:02.554Z,67.81
2023-03-31T11:58:36.829Z,64.53
2023-03-31T12:01:17.104Z,64.40
2023-03-31T12:04:03.106Z,65.02
2023-03-31T12:06:32.739Z,67.37
2023-03-31T12:09:22.136Z,66.27
2023-03-31T12:12:09.785Z,65.63
2023-03-31T12:14:48.864Z,65.50
2023-03-31T12:17:20.285Z,65.69
2023-03-31T12:20:00.502Z,62.98
2023-03-31T12:22:38.945Z,64.19
2023-03-31T12:25:09.199Z,65.83
2023-03-31T12:27:40.455Z,64.37
2023-03-31T12:30:22.993Z,65.60
2023-03-31T12:32:56.027Z,65.91
2023-03-31T12:35:28.671Z,66.09
2023-03-31T12:38:35.031Z,65.67
2023-03-31T12:41:16.286Z,66.68
2023-03-31T12:44:34.560Z,64.79
2023-03-31T12:47:29.774Z,63.99
2023-03-31T12:50:03.750Z,64.44
2023-03-31T12:52:49.786Z,64.83
2023-03-31T12:55:24.090Z,63.77
2023-03-31T12:57:51.550Z,63.95
2023-03-31T13:00:26.583Z,63.45
2023-03-31T13:03:33.998Z,63.39
2023-03-31T13:06:02.493Z,62.70
2023-03-31T13:08:48.811Z,61.62
2023-03-31T13:11:19.717Z,59.53
2023-03-31T13:14:14.031Z,59.90
2023-03-31T13:16:41.225Z,59.99
2023-03-31T13:19:12.966Z,57.45
2023-03-31T13:21:58.019Z,57.41
2023-03-31T13:24:28.246Z,59.37
2023-03-31T13:26:59.139Z,57.75
2023-03-31T13:29:44.283Z,58.31
2023-03-31T13:32:23.810Z,58.37
2023-03-31T13:35:17.861Z,54.20
2023-03-31T13:38:03.251Z,56.64
2023-03-31T13:40:54.865Z,56.64
2023-03-31T13:43:38.403Z,58.04
2023-03-31T13:46:36.911Z,58.58
2023-03-31T13:49:33.228Z,57.76
2023-03-31T13:52:09.344Z,58.94
2023-03-31T13:54:54.079Z,58.80
2023-03-31T13:57:43.373Z,59.70
2023-03-31T14:00:48.048Z,59.03
2023-03-31T14:03:32.744Z,60.23
2023-03-31T14:06:10.790Z,59.58
2023-03-31T14:09:01.192Z,57.99
2023-03-31T14:11:30.555Z,57.54
2023-03-31T14:14:10.374Z,57.82
2023-03-31T14:16:40.854Z,57.67
2023-03-31T14:19:17.018Z,56.05
2023-03-31T14:21:48.890Z,54.09
2023-03-31T14:24:53.776Z,54.74
2023-03-31T14:27:25.688Z,55.36
2023-03-31T14:29:57.952Z,55.79
2023-03-31T14:32:38.527Z,56.91
2023-03-31T14:35:13.816Z,57.66
2023-03-31T14:37:41.129Z,56.83
2023-03-31T14:40:13.876Z,58.07
2023-03-31T14:42:41.562Z,58.61
2023-03-31T14:45:31.502Z,58.78
2023-03-31T14:48:19.935Z,58.03
2023-03-31T14:50:47.336Z,58.55
2023-03-31T14:53:16.286Z,57.86
2023-03-31T14:58:26.988Z,58.25
2023-03-31T15:00:54.386Z,55.51
2023-03-31T15:03:22.132Z,51.41
2023-03-31T15:05:50.383Z,54.58
2023-03-31T15:08:23.102Z,52.88
2023-03-31T15:10:58.811Z,55.12
2023-03-31T15:13:35.890Z,55.61
2023-03-31T15:16:30.873Z,54.11
2023-03-31T15:19:00.206Z,55.16
2023-03-31T15:21:28.904Z,56.42
2023-03-31T15:23:56.940Z,56.83
2023-03-31T15:26:40.730Z,56.81
2023-03-31T15:29:17.690Z,57.16
2023-03-31T15:31:45.008Z,58.66
2023-03-31T15:34:28.076Z,58.96
2023-03-31T15:36:56.894Z,59.00
2023-03-31T15:39:26.377Z,60.48
2023-03-31T15:41:54.465Z,60.78
2023-03-31T15:44:44.966Z,60.57
2023-03-31T15:47:16.407Z,59.37
2023-03-31T15:50:13.314Z,60.52
2023-03-31T15:52:49.634Z,59.57
2023-03-31T15:55:27.254Z,59.69
2023-03-31T15:57:56.164Z,59.84
2023-03-31T16:00:46.639Z,59.86
2023-03-31T16:03:28.759Z,60.09
2023-03-31T16:05:57.395Z,59.56
2023-03-31T16:08:32.261Z,59.72
2023-03-31T16:11:07.376Z,60.56
2023-03-31T16:16:08.458Z,62.51
2023-03-31T16:18:39.143Z,61.64
2023-03-31T16:21:08.858Z,62.60
2023-03-31T16:23:40.741Z,62.81
2023-03-31T16:26:08.646Z,63.52
2023-03-31T16:28:37.420Z,64.09
2023-03-31T16:31:06.079Z,64.97
2023-03-31T16:33:53.521Z,65.12
2023-03-31T16:36:21.093Z,65.52
2023-03-31T16:38:48.311Z,66.62
2023-03-31T16:41:16.011Z,66.41
2023-03-31T16:43:45.505Z,66.51
2023-03-31T16:46:12.818Z,67.35
2023-03-31T16:48:40.061Z,66.65
2023-03-31T16:51:07.565Z,66.32
2023-03-31T16:53:36.143Z,66.87
2023-03-31T16:56:05.085Z,66.63
2023-03-31T16:58:32.665Z,66.16
2023-03-31T17:01:00.260Z,66.21
2023-03-31T17:03:28.004Z,66.37
2023-03-31T17:05:59.065Z,66.31
2023-03-31T17:08:27.660Z,67.65
2023-03-31T17:10:58.775Z,66.08
2023-03-31T17:13:26.395Z,66.41
2023-03-31T17:16:01.323Z,67.01
2023-03-31T17:18:36.133Z,66.63
2023-03-31T17:21:11.728Z,67.05
2023-03-31T17:23:39.767Z,66.83
2023-03-31T17:26:09.709Z,66.87
2023-03-31T17:28:37.132Z,67.06
2023-03-31T17:31:18.111Z,66.93
2023-03-31T17:33:46.329Z,67.59
2023-03-31T17:36:15.431Z,67.32
2023-03-31T17:38:42.764Z,67.30
2023-03-31T17:41:12.910Z,67.80
2023-03-31T17:43:40.841Z,67.83
2023-03-31T17:46:13.129Z,68.46
2023-03-31T17:48:42.265Z,68.36
2023-03-31T17:51:13.833Z,68.35
2023-03-31T17:53:42.596Z,68.04
2023-03-31T17:56:09.953Z,69.08
2023-03-31T17:58:37.151Z,69.77
2023-03-31T18:01:07.815Z,69.35
2023-03-31T18:03:35.616Z,68.93
2023-03-31T18:06:07.828Z,69.42
2023-03-31T18:08:36.121Z,70.42
2023-03-31T18:11:05.235Z,69.55
2023-03-31T18:13:34.730Z,70.11
2023-03-31T18:16:02.618Z,70.87
2023-03-31T18:18:30.046Z,72.03
2023-03-31T18:20:57.429Z,71.63
2023-03-31T18:23:24.914Z,73.18
2023-03-31T18:25:52.732Z,72.22
2023-03-31T18:28:20.960Z,71.91
2023-03-31T18:30:48.774Z,71.78
2023-03-31T18:33:16.540Z,72.67
2023-03-31T18:35:44.394Z,72.14
2023-03-31T18:38:12.116Z,71.94
2023-03-31T18:40:39.369Z,72.25
2023-03-31T18:43:06.651Z,72.74
2023-03-31T18:45:34.362Z,72.92
2023-03-31T18:48:02.481Z,73.21
2023-03-31T18:50:30.616Z,72.62
2023-03-31T18:52:58.138Z,72.93
2023-03-31T18:55:25.378Z,74.11
2023-03-31T18:57:52.623Z,74.87
2023-03-31T19:00:20.605Z,74.93
2023-03-31T19:02:48.574Z,76.27
2023-03-31T19:05:15.965Z,77.42
2023-03-31T19:07:43.473Z,77.77
2023-03-31T19:10:10.887Z,79.93
2023-03-31T19:12:38.044Z,81.24
2023-03-31T19:15:07.102Z,82.45
2023-03-31T19:17:34.289Z,82.68
2023-03-31T19:20:01.668Z,83.41
2023-03-31T19:22:30.029Z,83.00
2023-03-31T19:24:57.304Z,83.71
2023-03-31T19:27:24.434Z,84.10
2023-03-31T19:29:51.942Z,85.39
2023-03-31T19:32:19.284Z,86.26
2023-03-31T19:34:46.581Z,86.44
2023-03-31T19:37:14.079Z,84.81
2023-03-31T19:39:41.438Z,85.50
2023-03-31T19:42:10.639Z,84.12
2023-03-31T19:44:38.270Z,83.09
2023-03-31T19:47:05.829Z,83.62
2023-03-31T19:49:33.090Z,82.88
2023-03-31T19:52:00.852Z,83.58
2023-03-31T19:54:28.700Z,81.99
2023-03-31T19:56:56.108Z,81.94
2023-03-31T19:59:23.801Z,81.58
2023-03-31T20:01:51.610Z,82.57
2023-03-31T20:04:20.958Z,82.79
2023-03-31T20:06:49.571Z,84.61
2023-03-31T20:09:17.350Z,83.82
2023-03-31T20:11:45.431Z,86.58
2023-03-31T20:14:15.061Z,86.45
2023-03-31T20:16:42.313Z,87.89
2023-03-31T20:19:13.059Z,88.59
2023-03-31T20:21:40.768Z,89.54
2023-03-31T20:24:08.472Z,90.88
2023-03-31T20:26:36.167Z,91.01
2023-03-31T20:29:04.009Z,91.47
2023-03-31T20:31:36.529Z,93.54
2023-03-31T20:34:12.791Z,93.60
2023-03-31T20:36:41.295Z,94.27
2023-03-31T20:39:09.217Z,92.69
2023-03-31T20:41:37.388Z,93.11
2023-03-31T20:44:07.405Z,93.33
2023-03-31T20:46:35.064Z,93.26
2023-03-31T20:49:02.372Z,94.42
2023-03-31T20:51:34.329Z,94.74
2023-03-31T20:54:02.031Z,94.22
2023-03-31T20:56:34.995Z,95.50
2023-03-31T20:59:04.188Z,95.82
2023-03-31T21:01:33.348Z,94.86
2023-03-31T21:04:02.563Z,94.45
2023-03-31T21:06:32.820Z,95.00
2023-03-31T21:09:00.166Z,95.55
2023-03-31T21:11:27.484Z,95.57
2023-03-31T21:13:55.099Z,95.12
2023-03-31T21:16:23.094Z,94.86
2023-03-31T21:18:51.780Z,94.05
2023-03-31T21:21:19.598Z,95.00
2023-03-31T21:23:47.073Z,93.85
2023-03-31T21:26:15.794Z,93.33
2023-03-31T21:28:44.078Z,93.31
2023-03-31T21:31:12.531Z,92.55
2023-03-31T21:33:41.726Z,92.46
2023-03-31T21:36:13.279Z,92.26
2023-03-31T21:38:40.940Z,92.72
2023-03-31T21:41:10.899Z,92.38
2023-03-31T21:43:38.398Z,92.83
2023-03-31T21:46:06.677Z,92.80
2023-03-31T21:48:34.824Z,93.40
2023-03-31T21:51:02.968Z,94.33
2023-03-31T21:53:31.497Z,94.74
2023-03-31T21:55:59.240Z,95.42
2023-03-31T21:58:28.852Z,95.32
2023-03-31T22:01:01.249Z,95.66
2023-03-31T22:03:29.227Z,96.06
2023-03-31T22:05:57.238Z,97.30
2023-03-31T22:08:27.017Z,97.01
2023-03-31T22:10:55.992Z,97.19
2023-03-31T22:13:23.832Z,98.42
2023-03-31T22:15:51.106Z,97.49
2023-03-31T22:18:19.376Z,97.84
2023-03-31T22:20:46.746Z,98.89
2023-03-31T22:23:14.916Z,99.41
2023-03-31T22:25:42.653Z,98.33
2023-03-31T22:28:10.392Z,98.01
2023-03-31T22:30:37.821Z,97.81
2023-03-31T22:33:05.554Z,97.38
2023-03-31T22:35:33.102Z,96.86
2023-03-31T22:38:01.581Z,96.83
2023-03-31T22:40:30.198Z,97.17
2023-03-31T22:42:58.451Z,97.39
2023-03-31T22:45:25.845Z,97.72
2023-03-31T22:47:53.525Z,98.17
2023-03-31T22:50:21.089Z,98.01
2023-03-31T22:52:48.325Z,98.04
2023-03-31T22:55:16.159Z,97.84
2023-03-31T22:57:43.415Z,98.49
2023-03-31T23:00:12.260Z,98.86
2023-03-31T23:02:40.581Z,98.73
2023-03-31T23:05:08.221Z,98.93
2023-03-31T23:07:36.076Z,99.39
2023-03-31T23:10:04.286Z,99.56
2023-03-31T23:12:31.476Z,99.01
2023-03-31T23:14:58.671Z,99.26
2023-03-31T23:17:26.504Z,99.35
2023-03-31T23:19:53.842Z,100.00
2023-03-31T23:22:21.605Z,100.00
2023-03-31T23:24:49.649Z,100.00
2023-03-31T23:27:16.798Z,100.00
2023-03-31T23:29:44.509Z,100.00
2023-03-31T23:32:13.082Z,100.00
2023-03-31T23:34:41.887Z,100.00
2023-03-31T23:37:11.013Z,100.00
2023-03-31T23:39:38.752Z,100.00
2023-03-31T23:42:07.318Z,100.00
2023-03-31T23:44:37.853Z,100.00
2023-03-31T23:47:06.111Z,100.00
2023-03-31T23:49:33.706Z,100.00
2023-03-31T23:52:01.277Z,100.00
2023-03-31T23:54:28.967Z,100.00
2023-03-31T23:56:56.203Z,100.00
2023-03-31T23:59:23.556Z,100.00
